sensor_id;sensor_type;location;lat;lon;timestamp;temperature;humidity
35541;DHT22;21650;48.840;9.162;2022-11-15T00:00:15;8.20;99.90
35541;DHT22;21650;48.840;9.162;2022-11-15T00:02:41;8.30;99.90
35541;DHT22;21650;48.840;9.162;2022-11-15T00:05:07;8.20;99.90
35541;DHT22;21650;48.840;9.162;2022-11-15T00:07:35;8.30;99.90
35541;DHT22;21650;48.840;9.162;2022-11-15T00:10:00;8.30;99.90
35541;DHT22;21650;48.840;9.162;2022-11-15T00:12:27;8.30;99.90
35541;DHT22;21650;48.840;9.162;2022-11-15T00:14:53;8.30;99.90
35541;DHT22;21650;48.840;9.162;2022-11-15T00:17:19;8.30;99.90
35541;DHT22;21650;48.840;9.162;2022-11-15T00:19:45;8.40;99.90
35541;DHT22;21650;48.840;9.162;2022-11-15T00:22:10;8.60;99.90
35541;DHT22;21650;48.840;9.162;2022-11-15T00:24:36;8.80;99.90
35541;DHT22;21650;48.840;9.162;2022-11-15T00:27:02;8.90;99.90
35541;DHT22;21650;48.840;9.162;2022-11-15T00:29:27;9.00;99.90
35541;DHT22;21650;48.840;9.162;2022-11-15T00:31:53;9.20;99.90
35541;DHT22;21650;48.840;9.162;2022-11-15T00:34:19;9.20;99.90
35541;DHT22;21650;48.840;9.162;2022-11-15T00:36:47;9.20;99.90
35541;DHT22;21650;48.840;9.162;2022-11-15T00:39:12;9.20;99.90
35541;DHT22;21650;48.840;9.162;2022-11-15T00:41:38;9.20;99.90
35541;DHT22;21650;48.840;9.162;2022-11-15T00:44:03;9.10;99.90
35541;DHT22;21650;48.840;9.162;2022-11-15T00:46:29;9.10;99.90
35541;DHT22;21650;48.840;9.162;2022-11-15T00:48:55;9.10;99.90
35541;DHT22;21650;48.840;9.162;2022-11-15T00:51:21;9.00;99.90
35541;DHT22;21650;48.840;9.162;2022-11-15T00:53:46;8.90;99.90
35541;DHT22;21650;48.840;9.162;2022-11-15T00:56:12;9.00;99.90
35541;DHT22;21650;48.840;9.162;2022-11-15T00:58:38;9.20;99.90
35541;DHT22;21650;48.840;9.162;2022-11-15T01:01:10;9.30;99.90
35541;DHT22;21650;48.840;9.162;2022-11-15T01:03:37;9.20;99.90
35541;DHT22;21650;48.840;9.162;2022-11-15T01:06:03;9.10;99.90
35541;DHT22;21650;48.840;9.162;2022-11-15T01:08:29;8.90;99.90
35541;DHT22;21650;48.840;9.162;2022-11-15T01:10:54;8.70;99.90
35541;DHT22;21650;48.840;9.162;2022-11-15T01:13:33;8.60;99.90
35541;DHT22;21650;48.840;9.162;2022-11-15T01:16:05;8.50;99.90
35541;DHT22;21650;48.840;9.162;2022-11-15T01:18:30;8.40;99.90
35541;DHT22;21650;48.840;9.162;2022-11-15T01:20:56;8.30;99.90
35541;DHT22;21650;48.840;9.162;2022-11-15T01:23:21;8.20;99.90
35541;DHT22;21650;48.840;9.162;2022-11-15T01:25:47;8.10;99.90
35541;DHT22;21650;48.840;9.162;2022-11-15T01:28:12;8.00;99.90
35541;DHT22;21650;48.840;9.162;2022-11-15T01:30:38;7.90;99.90
35541;DHT22;21650;48.840;9.162;2022-11-15T01:33:03;7.80;99.90
35541;DHT22;21650;48.840;9.162;2022-11-15T01:35:29;7.70;99.90
35541;DHT22;21650;48.840;9.162;2022-11-15T01:37:55;7.70;99.90
35541;DHT22;21650;48.840;9.162;2022-11-15T01:40:20;7.60;99.90
35541;DHT22;21650;48.840;9.162;2022-11-15T01:42:46;7.60;99.90
35541;DHT22;21650;48.840;9.162;2022-11-15T01:45:14;7.50;99.90
35541;DHT22;21650;48.840;9.162;2022-11-15T01:47:44;7.50;99.90
35541;DHT22;21650;48.840;9.162;2022-11-15T01:50:16;7.50;99.90
35541;DHT22;21650;48.840;9.162;2022-11-15T01:52:42;7.40;99.90
35541;DHT22;21650;48.840;9.162;2022-11-15T01:55:13;7.40;99.90
35541;DHT22;21650;48.840;9.162;2022-11-15T01:57:41;7.30;99.90
35541;DHT22;21650;48.840;9.162;2022-11-15T02:00:07;7.30;99.90
35541;DHT22;21650;48.840;9.162;2022-11-15T02:02:34;7.20;99.90
35541;DHT22;21650;48.840;9.162;2022-11-15T02:05:01;7.20;99.90
35541;DHT22;21650;48.840;9.162;2022-11-15T02:07:28;7.20;99.90
35541;DHT22;21650;48.840;9.162;2022-11-15T02:09:55;7.30;99.90
35541;DHT22;21650;48.840;9.162;2022-11-15T02:12:21;7.30;99.90
35541;DHT22;21650;48.840;9.162;2022-11-15T02:14:51;7.30;99.90
35541;DHT22;21650;48.840;9.162;2022-11-15T02:17:48;7.30;99.90
35541;DHT22;21650;48.840;9.162;2022-11-15T02:31:40;7.50;99.90
35541;DHT22;21650;48.840;9.162;2022-11-15T02:36:53;7.60;99.90
35541;DHT22;21650;48.840;9.162;2022-11-15T02:39:42;7.60;99.90
35541;DHT22;21650;48.840;9.162;2022-11-15T02:42:26;7.60;99.90
35541;DHT22;21650;48.840;9.162;2022-11-15T02:45:22;7.70;99.90
35541;DHT22;21650;48.840;9.162;2022-11-15T02:47:52;7.60;99.90
35541;DHT22;21650;48.840;9.162;2022-11-15T02:50:23;7.70;99.90
35541;DHT22;21650;48.840;9.162;2022-11-15T02:52:50;7.60;99.90
35541;DHT22;21650;48.840;9.162;2022-11-15T02:55:43;7.60;99.90
35541;DHT22;21650;48.840;9.162;2022-11-15T03:00:59;7.70;99.90
35541;DHT22;21650;48.840;9.162;2022-11-15T03:09:16;7.80;99.90
35541;DHT22;21650;48.840;9.162;2022-11-15T03:11:50;7.90;99.90
35541;DHT22;21650;48.840;9.162;2022-11-15T03:14:35;7.90;99.90
35541;DHT22;21650;48.840;9.162;2022-11-15T03:19:46;7.90;99.90
35541;DHT22;21650;48.840;9.162;2022-11-15T03:22:17;7.90;99.90
35541;DHT22;21650;48.840;9.162;2022-11-15T03:24:46;7.80;99.90
35541;DHT22;21650;48.840;9.162;2022-11-15T03:27:15;7.70;99.90
35541;DHT22;21650;48.840;9.162;2022-11-15T03:29:46;7.60;99.90
35541;DHT22;21650;48.840;9.162;2022-11-15T03:32:19;7.60;99.90
35541;DHT22;21650;48.840;9.162;2022-11-15T03:34:50;7.50;99.90
35541;DHT22;21650;48.840;9.162;2022-11-15T03:37:20;7.50;99.90
35541;DHT22;21650;48.840;9.162;2022-11-15T03:39:47;7.40;99.90
35541;DHT22;21650;48.840;9.162;2022-11-15T03:42:30;7.50;99.90
35541;DHT22;21650;48.840;9.162;2022-11-15T03:45:12;7.40;99.90
35541;DHT22;21650;48.840;9.162;2022-11-15T03:47:48;7.50;99.90
35541;DHT22;21650;48.840;9.162;2022-11-15T03:50:18;7.50;99.90
35541;DHT22;21650;48.840;9.162;2022-11-15T03:52:48;7.50;99.90
35541;DHT22;21650;48.840;9.162;2022-11-15T03:55:19;7.40;99.90
35541;DHT22;21650;48.840;9.162;2022-11-15T03:57:46;7.40;99.90
35541;DHT22;21650;48.840;9.162;2022-11-15T04:00:12;7.40;99.90
35541;DHT22;21650;48.840;9.162;2022-11-15T04:02:38;7.40;99.90
35541;DHT22;21650;48.840;9.162;2022-11-15T04:05:04;7.40;99.90
35541;DHT22;21650;48.840;9.162;2022-11-15T04:07:30;7.40;99.90
35541;DHT22;21650;48.840;9.162;2022-11-15T04:09:55;7.40;99.90
35541;DHT22;21650;48.840;9.162;2022-11-15T04:12:37;7.50;99.90
35541;DHT22;21650;48.840;9.162;2022-11-15T04:15:06;7.50;99.90
35541;DHT22;21650;48.840;9.162;2022-11-15T04:17:36;7.50;99.90
35541;DHT22;21650;48.840;9.162;2022-11-15T04:20:07;7.50;99.90
35541;DHT22;21650;48.840;9.162;2022-11-15T04:22:53;7.60;99.90
35541;DHT22;21650;48.840;9.162;2022-11-15T04:25:37;7.60;99.90
35541;DHT22;21650;48.840;9.162;2022-11-15T04:28:03;7.60;99.90
35541;DHT22;21650;48.840;9.162;2022-11-15T04:30:29;7.60;99.90
35541;DHT22;21650;48.840;9.162;2022-11-15T04:32:54;7.60;99.90
35541;DHT22;21650;48.840;9.162;2022-11-15T04:35:20;7.60;99.90
35541;DHT22;21650;48.840;9.162;2022-11-15T04:37:45;7.60;99.90
35541;DHT22;21650;48.840;9.162;2022-11-15T04:40:11;7.60;99.90
35541;DHT22;21650;48.840;9.162;2022-11-15T04:42:36;7.60;99.90
35541;DHT22;21650;48.840;9.162;2022-11-15T04:45:02;7.70;99.90
35541;DHT22;21650;48.840;9.162;2022-11-15T04:47:28;7.70;99.90
35541;DHT22;21650;48.840;9.162;2022-11-15T04:49:54;7.70;99.90
35541;DHT22;21650;48.840;9.162;2022-11-15T04:52:20;7.70;99.90
35541;DHT22;21650;48.840;9.162;2022-11-15T04:54:46;7.60;99.90
35541;DHT22;21650;48.840;9.162;2022-11-15T04:57:11;7.70;99.90
35541;DHT22;21650;48.840;9.162;2022-11-15T04:59:37;7.60;99.90
35541;DHT22;21650;48.840;9.162;2022-11-15T05:02:02;7.50;99.90
35541;DHT22;21650;48.840;9.162;2022-11-15T05:04:28;7.50;99.90
35541;DHT22;21650;48.840;9.162;2022-11-15T05:06:53;7.40;99.90
35541;DHT22;21650;48.840;9.162;2022-11-15T05:09:19;7.40;99.90
35541;DHT22;21650;48.840;9.162;2022-11-15T05:11:45;7.30;99.90
35541;DHT22;21650;48.840;9.162;2022-11-15T05:14:12;7.30;99.90
35541;DHT22;21650;48.840;9.162;2022-11-15T05:16:38;7.40;99.90
35541;DHT22;21650;48.840;9.162;2022-11-15T05:19:04;7.30;99.90
35541;DHT22;21650;48.840;9.162;2022-11-15T05:21:30;7.30;99.90
35541;DHT22;21650;48.840;9.162;2022-11-15T05:23:55;7.30;99.90
35541;DHT22;21650;48.840;9.162;2022-11-15T05:26:21;7.40;99.90
35541;DHT22;21650;48.840;9.162;2022-11-15T05:28:55;7.30;99.90
35541;DHT22;21650;48.840;9.162;2022-11-15T05:31:21;7.40;99.90
35541;DHT22;21650;48.840;9.162;2022-11-15T05:33:49;7.40;99.90
35541;DHT22;21650;48.840;9.162;2022-11-15T05:38:53;7.40;99.90
35541;DHT22;21650;48.840;9.162;2022-11-15T05:41:21;7.50;99.90
35541;DHT22;21650;48.840;9.162;2022-11-15T05:43:48;7.50;99.90
35541;DHT22;21650;48.840;9.162;2022-11-15T05:46:15;7.50;99.90
35541;DHT22;21650;48.840;9.162;2022-11-15T05:48:44;7.50;99.90
35541;DHT22;21650;48.840;9.162;2022-11-15T05:51:12;7.50;99.90
35541;DHT22;21650;48.840;9.162;2022-11-15T05:53:38;7.50;99.90
35541;DHT22;21650;48.840;9.162;2022-11-15T05:56:05;7.50;99.90
35541;DHT22;21650;48.840;9.162;2022-11-15T05:58:33;7.60;99.90
35541;DHT22;21650;48.840;9.162;2022-11-15T06:00:59;7.70;99.90
35541;DHT22;21650;48.840;9.162;2022-11-15T06:03:25;7.70;99.90
35541;DHT22;21650;48.840;9.162;2022-11-15T06:05:51;7.70;99.90
35541;DHT22;21650;48.840;9.162;2022-11-15T06:08:16;7.70;99.90
35541;DHT22;21650;48.840;9.162;2022-11-15T06:10:42;7.70;99.90
35541;DHT22;21650;48.840;9.162;2022-11-15T06:13:07;7.60;99.90
35541;DHT22;21650;48.840;9.162;2022-11-15T06:15:33;7.60;99.90
35541;DHT22;21650;48.840;9.162;2022-11-15T06:18:00;7.50;99.90
35541;DHT22;21650;48.840;9.162;2022-11-15T06:20:27;7.50;99.90
35541;DHT22;21650;48.840;9.162;2022-11-15T06:23:01;7.50;99.90
35541;DHT22;21650;48.840;9.162;2022-11-15T06:25:27;7.50;99.90
35541;DHT22;21650;48.840;9.162;2022-11-15T06:27:54;7.40;99.90
35541;DHT22;21650;48.840;9.162;2022-11-15T06:30:20;7.40;99.90
35541;DHT22;21650;48.840;9.162;2022-11-15T06:32:46;7.40;99.90
35541;DHT22;21650;48.840;9.162;2022-11-15T06:35:12;7.40;99.90
35541;DHT22;21650;48.840;9.162;2022-11-15T06:37:38;7.40;99.90
35541;DHT22;21650;48.840;9.162;2022-11-15T06:40:04;7.50;99.90
35541;DHT22;21650;48.840;9.162;2022-11-15T06:42:30;7.50;99.90
35541;DHT22;21650;48.840;9.162;2022-11-15T06:44:55;7.60;99.90
35541;DHT22;21650;48.840;9.162;2022-11-15T06:47:21;7.60;99.90
35541;DHT22;21650;48.840;9.162;2022-11-15T06:49:46;7.60;99.90
35541;DHT22;21650;48.840;9.162;2022-11-15T06:52:12;7.60;99.90
35541;DHT22;21650;48.840;9.162;2022-11-15T06:54:37;7.70;99.90
35541;DHT22;21650;48.840;9.162;2022-11-15T06:57:04;7.70;99.90
35541;DHT22;21650;48.840;9.162;2022-11-15T06:59:30;7.70;99.90
35541;DHT22;21650;48.840;9.162;2022-11-15T07:01:56;7.70;99.90
35541;DHT22;21650;48.840;9.162;2022-11-15T07:04:21;7.80;99.90
35541;DHT22;21650;48.840;9.162;2022-11-15T07:06:47;7.80;99.90
35541;DHT22;21650;48.840;9.162;2022-11-15T07:09:13;7.80;99.90
35541;DHT22;21650;48.840;9.162;2022-11-15T07:11:39;7.90;99.90
35541;DHT22;21650;48.840;9.162;2022-11-15T07:14:05;7.90;99.90
35541;DHT22;21650;48.840;9.162;2022-11-15T07:16:30;8.00;99.90
35541;DHT22;21650;48.840;9.162;2022-11-15T07:18:56;8.10;99.90
35541;DHT22;21650;48.840;9.162;2022-11-15T07:21:21;8.10;99.90
35541;DHT22;21650;48.840;9.162;2022-11-15T07:23:47;8.10;99.90
35541;DHT22;21650;48.840;9.162;2022-11-15T07:26:12;8.20;99.90
35541;DHT22;21650;48.840;9.162;2022-11-15T07:28:38;8.30;99.90
35541;DHT22;21650;48.840;9.162;2022-11-15T07:31:05;8.40;99.90
35541;DHT22;21650;48.840;9.162;2022-11-15T07:33:31;8.50;99.90
35541;DHT22;21650;48.840;9.162;2022-11-15T07:36:04;8.50;99.90
35541;DHT22;21650;48.840;9.162;2022-11-15T07:38:30;8.70;99.90
35541;DHT22;21650;48.840;9.162;2022-11-15T07:41:00;8.80;99.90
35541;DHT22;21650;48.840;9.162;2022-11-15T07:43:26;8.90;99.90
35541;DHT22;21650;48.840;9.162;2022-11-15T07:45:53;9.10;99.90
35541;DHT22;21650;48.840;9.162;2022-11-15T07:48:19;9.30;99.90
35541;DHT22;21650;48.840;9.162;2022-11-15T07:50:44;9.40;99.90
35541;DHT22;21650;48.840;9.162;2022-11-15T07:53:10;9.60;99.90
35541;DHT22;21650;48.840;9.162;2022-11-15T07:55:36;9.70;99.90
35541;DHT22;21650;48.840;9.162;2022-11-15T07:58:03;9.70;99.90
35541;DHT22;21650;48.840;9.162;2022-11-15T08:00:30;9.80;99.90
35541;DHT22;21650;48.840;9.162;2022-11-15T08:03:07;9.80;99.90
35541;DHT22;21650;48.840;9.162;2022-11-15T08:05:33;9.90;99.90
35541;DHT22;21650;48.840;9.162;2022-11-15T08:07:59;9.90;99.90
35541;DHT22;21650;48.840;9.162;2022-11-15T08:10:26;10.00;99.90
35541;DHT22;21650;48.840;9.162;2022-11-15T08:13:06;10.10;99.90
35541;DHT22;21650;48.840;9.162;2022-11-15T08:15:33;10.00;99.90
35541;DHT22;21650;48.840;9.162;2022-11-15T08:18:01;10.10;99.90
35541;DHT22;21650;48.840;9.162;2022-11-15T08:20:29;10.20;99.90
35541;DHT22;21650;48.840;9.162;2022-11-15T08:23:00;10.30;99.90
35541;DHT22;21650;48.840;9.162;2022-11-15T08:25:27;10.40;99.90
35541;DHT22;21650;48.840;9.162;2022-11-15T08:27:54;10.50;99.90
35541;DHT22;21650;48.840;9.162;2022-11-15T08:30:20;10.50;99.90
35541;DHT22;21650;48.840;9.162;2022-11-15T08:32:45;10.60;99.90
35541;DHT22;21650;48.840;9.162;2022-11-15T08:35:11;10.60;99.90
35541;DHT22;21650;48.840;9.162;2022-11-15T08:37:37;10.70;99.90
35541;DHT22;21650;48.840;9.162;2022-11-15T08:40:03;10.80;99.90
35541;DHT22;21650;48.840;9.162;2022-11-15T08:42:28;10.80;99.90
35541;DHT22;21650;48.840;9.162;2022-11-15T08:44:54;10.70;99.90
35541;DHT22;21650;48.840;9.162;2022-11-15T08:47:19;10.90;99.90
35541;DHT22;21650;48.840;9.162;2022-11-15T08:49:45;10.80;99.90
35541;DHT22;21650;48.840;9.162;2022-11-15T08:52:11;10.90;99.90
35541;DHT22;21650;48.840;9.162;2022-11-15T08:54:36;11.00;99.90
35541;DHT22;21650;48.840;9.162;2022-11-15T08:57:02;11.00;99.90
35541;DHT22;21650;48.840;9.162;2022-11-15T08:59:28;10.90;99.90
35541;DHT22;21650;48.840;9.162;2022-11-15T09:01:53;11.10;99.90
35541;DHT22;21650;48.840;9.162;2022-11-15T09:04:19;11.20;99.90
35541;DHT22;21650;48.840;9.162;2022-11-15T09:06:44;11.30;99.90
35541;DHT22;21650;48.840;9.162;2022-11-15T09:09:10;11.40;99.90
35541;DHT22;21650;48.840;9.162;2022-11-15T09:11:35;11.50;99.90
35541;DHT22;21650;48.840;9.162;2022-11-15T09:14:01;11.50;99.90
35541;DHT22;21650;48.840;9.162;2022-11-15T09:16:26;11.50;99.90
35541;DHT22;21650;48.840;9.162;2022-11-15T09:18:53;11.50;99.90
35541;DHT22;21650;48.840;9.162;2022-11-15T09:21:19;11.50;99.90
35541;DHT22;21650;48.840;9.162;2022-11-15T09:23:45;11.60;99.90
35541;DHT22;21650;48.840;9.162;2022-11-15T09:26:10;11.60;99.90
35541;DHT22;21650;48.840;9.162;2022-11-15T09:28:36;11.70;99.90
35541;DHT22;21650;48.840;9.162;2022-11-15T09:31:04;11.60;99.90
35541;DHT22;21650;48.840;9.162;2022-11-15T09:33:30;11.70;99.90
35541;DHT22;21650;48.840;9.162;2022-11-15T09:36:01;11.70;99.90
35541;DHT22;21650;48.840;9.162;2022-11-15T09:38:27;11.80;99.90
35541;DHT22;21650;48.840;9.162;2022-11-15T09:46:56;12.00;99.90
35541;DHT22;21650;48.840;9.162;2022-11-15T09:49:24;12.10;99.90
35541;DHT22;21650;48.840;9.162;2022-11-15T09:51:53;12.10;99.90
35541;DHT22;21650;48.840;9.162;2022-11-15T10:05:14;12.50;99.90
35541;DHT22;21650;48.840;9.162;2022-11-15T10:10:39;12.70;99.90
35541;DHT22;21650;48.840;9.162;2022-11-15T10:13:13;12.70;99.90
35541;DHT22;21650;48.840;9.162;2022-11-15T10:15:43;12.70;99.90
35541;DHT22;21650;48.840;9.162;2022-11-15T10:18:47;12.70;99.90
35541;DHT22;21650;48.840;9.162;2022-11-15T10:21:20;12.60;99.90
35541;DHT22;21650;48.840;9.162;2022-11-15T10:23:47;12.60;99.90
35541;DHT22;21650;48.840;9.162;2022-11-15T10:26:16;12.70;99.90
35541;DHT22;21650;48.840;9.162;2022-11-15T10:28:41;12.70;99.90
35541;DHT22;21650;48.840;9.162;2022-11-15T10:31:25;12.80;99.90
35541;DHT22;21650;48.840;9.162;2022-11-15T10:34:05;12.90;99.90
35541;DHT22;21650;48.840;9.162;2022-11-15T10:36:36;12.80;99.90
35541;DHT22;21650;48.840;9.162;2022-11-15T10:39:03;12.80;99.90
35541;DHT22;21650;48.840;9.162;2022-11-15T10:46:40;13.00;99.90
35541;DHT22;21650;48.840;9.162;2022-11-15T10:49:17;12.90;99.90
35541;DHT22;21650;48.840;9.162;2022-11-15T10:51:47;12.90;99.90
35541;DHT22;21650;48.840;9.162;2022-11-15T10:54:20;12.80;99.90
35541;DHT22;21650;48.840;9.162;2022-11-15T10:56:53;12.80;99.90
35541;DHT22;21650;48.840;9.162;2022-11-15T10:59:26;12.90;99.90
35541;DHT22;21650;48.840;9.162;2022-11-15T11:01:53;12.90;99.90
35541;DHT22;21650;48.840;9.162;2022-11-15T11:04:18;12.90;99.90
35541;DHT22;21650;48.840;9.162;2022-11-15T11:09:28;12.80;99.90
35541;DHT22;21650;48.840;9.162;2022-11-15T11:11:54;12.80;99.90
35541;DHT22;21650;48.840;9.162;2022-11-15T11:14:26;12.70;99.90
35541;DHT22;21650;48.840;9.162;2022-11-15T11:22:20;12.80;99.90
35541;DHT22;21650;48.840;9.162;2022-11-15T11:25:18;12.80;99.90
35541;DHT22;21650;48.840;9.162;2022-11-15T11:41:07;13.20;99.90
35541;DHT22;21650;48.840;9.162;2022-11-15T11:43:48;13.20;99.90
35541;DHT22;21650;48.840;9.162;2022-11-15T11:46:38;13.30;99.90
35541;DHT22;21650;48.840;9.162;2022-11-15T11:49:45;13.30;99.90
35541;DHT22;21650;48.840;9.162;2022-11-15T11:54:51;13.40;99.90
35541;DHT22;21650;48.840;9.162;2022-11-15T11:57:44;13.50;99.90
35541;DHT22;21650;48.840;9.162;2022-11-15T12:00:23;13.40;99.90
35541;DHT22;21650;48.840;9.162;2022-11-15T12:02:52;13.50;99.90
35541;DHT22;21650;48.840;9.162;2022-11-15T12:10:47;13.50;99.90
35541;DHT22;21650;48.840;9.162;2022-11-15T12:13:21;13.60;99.90
35541;DHT22;21650;48.840;9.162;2022-11-15T12:15:59;13.70;99.90
35541;DHT22;21650;48.840;9.162;2022-11-15T12:18:26;13.70;99.90
35541;DHT22;21650;48.840;9.162;2022-11-15T12:21:01;13.70;99.90
35541;DHT22;21650;48.840;9.162;2022-11-15T12:23:29;13.70;99.90
35541;DHT22;21650;48.840;9.162;2022-11-15T12:26:42;13.60;99.90
35541;DHT22;21650;48.840;9.162;2022-11-15T12:28:59;13.40;99.90
35541;DHT22;21650;48.840;9.162;2022-11-15T12:34:12;13.40;99.90
35541;DHT22;21650;48.840;9.162;2022-11-15T12:36:41;13.30;99.90
35541;DHT22;21650;48.840;9.162;2022-11-15T12:39:09;13.40;99.90
35541;DHT22;21650;48.840;9.162;2022-11-15T13:02:29;13.30;99.90
35541;DHT22;21650;48.840;9.162;2022-11-15T13:17:43;13.20;99.90
35541;DHT22;21650;48.840;9.162;2022-11-15T13:30:51;13.20;99.90
35541;DHT22;21650;48.840;9.162;2022-11-15T13:33:36;13.10;99.90
35541;DHT22;21650;48.840;9.162;2022-11-15T13:36:18;13.10;99.90
35541;DHT22;21650;48.840;9.162;2022-11-15T13:38:54;13.20;99.90
35541;DHT22;21650;48.840;9.162;2022-11-15T13:41:22;13.10;99.90
35541;DHT22;21650;48.840;9.162;2022-11-15T13:43:49;13.00;99.90
35541;DHT22;21650;48.840;9.162;2022-11-15T13:46:27;13.00;99.90
35541;DHT22;21650;48.840;9.162;2022-11-15T13:49:02;13.10;99.90
35541;DHT22;21650;48.840;9.162;2022-11-15T13:51:46;13.20;99.90
35541;DHT22;21650;48.840;9.162;2022-11-15T13:57:11;13.10;99.90
35541;DHT22;21650;48.840;9.162;2022-11-15T13:59:46;13.10;99.90
35541;DHT22;21650;48.840;9.162;2022-11-15T14:02:15;13.00;99.90
35541;DHT22;21650;48.840;9.162;2022-11-15T14:04:54;13.00;99.90
35541;DHT22;21650;48.840;9.162;2022-11-15T14:07:22;13.00;99.90
35541;DHT22;21650;48.840;9.162;2022-11-15T14:09:49;13.00;99.90
35541;DHT22;21650;48.840;9.162;2022-11-15T14:12:49;12.90;99.90
35541;DHT22;21650;48.840;9.162;2022-11-15T14:15:26;12.80;99.90
35541;DHT22;21650;48.840;9.162;2022-11-15T14:17:52;12.70;99.90
35541;DHT22;21650;48.840;9.162;2022-11-15T14:20:31;12.70;99.90
35541;DHT22;21650;48.840;9.162;2022-11-15T14:25:56;12.60;99.90
35541;DHT22;21650;48.840;9.162;2022-11-15T14:30:47;12.50;99.90
35541;DHT22;21650;48.840;9.162;2022-11-15T14:33:31;12.40;99.90
35541;DHT22;21650;48.840;9.162;2022-11-15T14:36:15;12.40;99.90
35541;DHT22;21650;48.840;9.162;2022-11-15T14:38:42;12.50;99.90
35541;DHT22;21650;48.840;9.162;2022-11-15T14:41:24;12.40;99.90
35541;DHT22;21650;48.840;9.162;2022-11-15T14:43:52;12.40;99.90
35541;DHT22;21650;48.840;9.162;2022-11-15T14:46:18;12.40;99.90
35541;DHT22;21650;48.840;9.162;2022-11-15T14:48:44;12.40;99.90
35541;DHT22;21650;48.840;9.162;2022-11-15T14:51:12;12.40;99.90
35541;DHT22;21650;48.840;9.162;2022-11-15T14:53:38;12.40;99.90
35541;DHT22;21650;48.840;9.162;2022-11-15T14:56:04;12.40;99.90
35541;DHT22;21650;48.840;9.162;2022-11-15T14:58:29;12.40;99.90
35541;DHT22;21650;48.840;9.162;2022-11-15T15:00:55;12.30;99.90
35541;DHT22;21650;48.840;9.162;2022-11-15T15:03:20;12.30;99.90
35541;DHT22;21650;48.840;9.162;2022-11-15T15:05:46;12.30;99.90
35541;DHT22;21650;48.840;9.162;2022-11-15T15:08:12;12.30;99.90
35541;DHT22;21650;48.840;9.162;2022-11-15T15:10:40;12.40;99.90
35541;DHT22;21650;48.840;9.162;2022-11-15T15:13:14;12.30;99.90
35541;DHT22;21650;48.840;9.162;2022-11-15T15:15:40;12.30;99.90
35541;DHT22;21650;48.840;9.162;2022-11-15T15:18:06;12.30;99.90
35541;DHT22;21650;48.840;9.162;2022-11-15T15:20:34;12.20;99.90
35541;DHT22;21650;48.840;9.162;2022-11-15T15:23:00;12.20;99.90
35541;DHT22;21650;48.840;9.162;2022-11-15T15:25:32;12.10;99.90
35541;DHT22;21650;48.840;9.162;2022-11-15T15:27:58;12.20;99.90
35541;DHT22;21650;48.840;9.162;2022-11-15T15:30:26;12.10;99.90
35541;DHT22;21650;48.840;9.162;2022-11-15T15:32:51;12.20;99.90
35541;DHT22;21650;48.840;9.162;2022-11-15T15:35:18;12.20;99.90
35541;DHT22;21650;48.840;9.162;2022-11-15T15:37:44;12.10;99.90
35541;DHT22;21650;48.840;9.162;2022-11-15T15:40:22;12.10;99.90
35541;DHT22;21650;48.840;9.162;2022-11-15T15:42:48;12.10;99.90
35541;DHT22;21650;48.840;9.162;2022-11-15T15:45:14;12.00;99.90
35541;DHT22;21650;48.840;9.162;2022-11-15T15:47:41;12.10;99.90
35541;DHT22;21650;48.840;9.162;2022-11-15T15:50:27;12.00;99.90
35541;DHT22;21650;48.840;9.162;2022-11-15T15:52:55;11.90;99.90
35541;DHT22;21650;48.840;9.162;2022-11-15T15:55:21;11.90;99.90
35541;DHT22;21650;48.840;9.162;2022-11-15T15:57:47;11.90;99.90
35541;DHT22;21650;48.840;9.162;2022-11-15T16:00:13;11.90;99.90
35541;DHT22;21650;48.840;9.162;2022-11-15T16:02:39;11.90;99.90
35541;DHT22;21650;48.840;9.162;2022-11-15T16:05:06;11.80;99.90
35541;DHT22;21650;48.840;9.162;2022-11-15T16:07:31;11.80;99.90
35541;DHT22;21650;48.840;9.162;2022-11-15T16:09:57;11.70;99.90
35541;DHT22;21650;48.840;9.162;2022-11-15T16:12:26;11.80;99.90
35541;DHT22;21650;48.840;9.162;2022-11-15T16:14:52;11.80;99.90
35541;DHT22;21650;48.840;9.162;2022-11-15T16:17:23;11.80;99.90
35541;DHT22;21650;48.840;9.162;2022-11-15T16:19:50;11.90;99.90
35541;DHT22;21650;48.840;9.162;2022-11-15T16:22:15;11.90;99.90
35541;DHT22;21650;48.840;9.162;2022-11-15T16:24:41;11.90;99.90
35541;DHT22;21650;48.840;9.162;2022-11-15T16:27:13;11.90;99.90
35541;DHT22;21650;48.840;9.162;2022-11-15T16:29:39;11.90;99.90
35541;DHT22;21650;48.840;9.162;2022-11-15T16:32:05;11.90;99.90
35541;DHT22;21650;48.840;9.162;2022-11-15T16:34:30;11.80;99.90
35541;DHT22;21650;48.840;9.162;2022-11-15T16:36:56;11.80;99.90
35541;DHT22;21650;48.840;9.162;2022-11-15T16:39:21;11.70;99.90
35541;DHT22;21650;48.840;9.162;2022-11-15T16:41:47;11.70;99.90
35541;DHT22;21650;48.840;9.162;2022-11-15T16:44:13;11.70;99.90
35541;DHT22;21650;48.840;9.162;2022-11-15T16:46:41;11.80;99.90
35541;DHT22;21650;48.840;9.162;2022-11-15T16:49:13;11.80;99.90
35541;DHT22;21650;48.840;9.162;2022-11-15T16:51:41;11.80;99.90
35541;DHT22;21650;48.840;9.162;2022-11-15T16:54:09;11.80;99.90
35541;DHT22;21650;48.840;9.162;2022-11-15T16:56:34;11.80;99.90
35541;DHT22;21650;48.840;9.162;2022-11-15T16:59:03;11.80;99.90
35541;DHT22;21650;48.840;9.162;2022-11-15T17:01:36;11.90;99.90
35541;DHT22;21650;48.840;9.162;2022-11-15T17:04:11;11.90;99.90
35541;DHT22;21650;48.840;9.162;2022-11-15T17:06:38;11.90;99.90
35541;DHT22;21650;48.840;9.162;2022-11-15T17:09:05;11.90;99.90
35541;DHT22;21650;48.840;9.162;2022-11-15T17:11:31;12.00;99.90
35541;DHT22;21650;48.840;9.162;2022-11-15T17:13:58;12.00;99.90
35541;DHT22;21650;48.840;9.162;2022-11-15T17:16:24;12.00;99.90
35541;DHT22;21650;48.840;9.162;2022-11-15T17:18:50;12.10;99.90
35541;DHT22;21650;48.840;9.162;2022-11-15T17:21:19;12.10;99.90
35541;DHT22;21650;48.840;9.162;2022-11-15T17:23:45;12.00;99.90
35541;DHT22;21650;48.840;9.162;2022-11-15T17:26:12;12.00;99.90
35541;DHT22;21650;48.840;9.162;2022-11-15T17:28:39;12.00;99.90
35541;DHT22;21650;48.840;9.162;2022-11-15T17:31:09;11.90;99.90
35541;DHT22;21650;48.840;9.162;2022-11-15T17:33:35;11.90;99.90
35541;DHT22;21650;48.840;9.162;2022-11-15T17:36:04;11.90;99.90
35541;DHT22;21650;48.840;9.162;2022-11-15T17:38:30;11.90;99.90
35541;DHT22;21650;48.840;9.162;2022-11-15T17:41:04;11.90;99.90
35541;DHT22;21650;48.840;9.162;2022-11-15T17:43:31;11.80;99.90
35541;DHT22;21650;48.840;9.162;2022-11-15T17:45:58;11.90;99.90
35541;DHT22;21650;48.840;9.162;2022-11-15T17:48:24;11.80;99.90
35541;DHT22;21650;48.840;9.162;2022-11-15T17:50:57;11.80;99.90
35541;DHT22;21650;48.840;9.162;2022-11-15T17:53:24;11.90;99.90
35541;DHT22;21650;48.840;9.162;2022-11-15T17:55:50;11.80;99.90
35541;DHT22;21650;48.840;9.162;2022-11-15T17:58:15;11.80;99.90
35541;DHT22;21650;48.840;9.162;2022-11-15T18:00:45;11.80;99.90
35541;DHT22;21650;48.840;9.162;2022-11-15T18:03:11;11.80;99.90
35541;DHT22;21650;48.840;9.162;2022-11-15T18:05:37;11.80;99.90